Time;durP1;ratioP1;P1;durP2;ratioP2;P2;SDS_P1;SDS_P2;PMS_P1;PMS_P2;Temp;Humidity;BMP_temperature;BMP_pressure;BME280_temperature;BME280_humidity;BME280_pressure;Samples;Min_cycle;Max_cycle;Signal;HPM_P1;HPM_P2
2022/11/08 00:01:31;;;;;;;7.45;2.10;;;;;;;11.01;100.00;100802.53;5237464;28;20806;-63
2022/11/08 00:04:05;;;;;;;;;;;;;;;11.03;100.00;100800.59;5242573;28;20047;-64
2022/11/08 00:15:08;;;;;;;9.43;2.40;;;;;;;10.83;100.00;100806.66;5239115;28;20056;-63
2022/11/08 00:17:39;;;;;;;10.02;2.70;;;;;;;10.82;100.00;100804.97;5240968;28;20028;-63
2022/11/08 00:20:10;;;;;;;10.60;2.22;;;;;;;10.83;100.00;100791.47;5240163;28;20519;-63
2022/11/08 00:22:42;;;;;;;7.43;2.55;;;;;;;10.79;100.00;100800.69;5238004;28;21009;-63
2022/11/08 00:25:13;;;;;;;9.32;2.88;;;;;;;10.83;100.00;100799.47;5237750;28;20052;-63
2022/11/08 00:27:44;;;;;;;7.00;1.92;;;;;;;10.74;100.00;100794.91;5237352;28;20483;-63
2022/11/08 00:30:16;;;;;;;8.95;2.50;;;;;;;10.73;100.00;100796.69;5238609;28;20029;-63
2022/11/08 00:32:47;;;;;;;10.02;2.45;;;;;;;10.74;100.00;100790.41;5241187;28;20044;-63
2022/11/08 00:35:18;;;;;;;8.73;2.25;;;;;;;10.68;100.00;100793.56;5237915;28;20032;-64
2022/11/08 00:37:50;;;;;;;10.00;2.20;;;;;;;10.65;100.00;100792.94;5244979;28;20076;-64
2022/11/08 00:40:21;;;;;;;8.77;2.80;;;;;;;10.60;100.00;100785.28;5238594;28;20423;-63
2022/11/08 00:42:52;;;;;;;10.63;2.70;;;;;;;10.57;100.00;100780.19;5239924;28;20036;-63
2022/11/08 00:45:23;;;;;;;10.18;2.53;;;;;;;10.58;100.00;100776.53;5238266;28;20041;-63
2022/11/08 00:47:55;;;;;;;9.18;2.42;;;;;;;10.57;100.00;100782.84;5240608;28;20020;-63
2022/11/08 00:50:26;;;;;;;6.28;2.10;;;;;;;10.52;100.00;100782.34;5237799;28;20537;-63
2022/11/08 00:52:57;;;;;;;8.40;2.20;;;;;;;10.48;100.00;100784.41;5244089;28;20025;-63
2022/11/08 00:55:29;;;;;;;9.93;2.47;;;;;;;10.48;100.00;100778.22;5237136;28;20052;-63
2022/11/08 00:58:00;;;;;;;7.95;2.50;;;;;;;10.48;100.00;100775.56;5223057;28;20466;-63
2022/11/08 01:00:31;;;;;;;7.47;2.40;;;;;;;10.40;100.00;100769.00;5238144;28;20036;-63
2022/11/08 01:03:18;;;;;;;7.32;2.63;;;;;;;10.40;100.00;100765.47;5238645;28;20020;-63
2022/11/08 01:05:51;;;;;;;10.02;2.47;;;;;;;10.36;100.00;100762.19;5238191;28;20091;-63
2022/11/08 01:08:23;;;;;;;11.40;2.53;;;;;;;10.34;100.00;100769.47;5236374;28;20173;-63
2022/11/08 01:10:54;;;;;;;8.05;2.25;;;;;;;10.32;100.00;100763.41;5240449;28;20171;-63
2022/11/08 01:13:26;;;;;;;10.65;2.28;;;;;;;10.31;100.00;100768.84;5247016;28;20054;-63
2022/11/08 01:15:57;;;;;;;7.05;2.28;;;;;;;10.27;100.00;100768.19;5243487;28;20693;-63
2022/11/08 01:18:28;;;;;;;9.20;2.40;;;;;;;10.22;100.00;100767.72;5243752;28;20112;-63
2022/11/08 01:21:02;;;;;;;8.75;2.40;;;;;;;10.25;100.00;100766.63;5242866;28;20078;-63
2022/11/08 01:23:33;;;;;;;11.43;2.63;;;;;;;10.25;100.00;100764.81;5244829;28;20048;-63
2022/11/08 01:26:08;;;;;;;13.70;3.28;;;;;;;10.24;100.00;100772.91;5242843;28;20451;-63
2022/11/08 01:28:39;;;;;;;11.52;3.33;;;;;;;10.21;100.00;100758.84;5243751;28;20033;-63
2022/11/08 01:31:18;;;;;;;7.85;2.45;;;;;;;10.20;100.00;100759.84;5249283;28;20040;-63
2022/11/08 01:33:50;;;;;;;12.88;2.95;;;;;;;10.19;100.00;100751.94;5248861;28;20475;-63
2022/11/08 01:36:24;;;;;;;8.95;3.30;;;;;;;10.16;100.00;100750.38;5247352;28;20232;-63
2022/11/08 01:38:56;;;;;;;;;;;;;;;10.20;100.00;100748.28;5248749;28;20094;-63
2022/11/08 01:41:27;;;;;;;8.65;3.10;;;;;;;10.14;100.00;100740.78;5249895;28;19920;-63
2022/11/08 01:43:59;;;;;;;8.65;3.00;;;;;;;10.10;100.00;100741.97;5247588;28;20355;-63
2022/11/08 01:46:35;;;;;;;8.27;3.05;;;;;;;10.15;100.00;100731.81;5248723;28;20066;-63
2022/11/08 01:49:12;;;;;;;12.23;2.88;;;;;;;10.10;100.00;100718.84;5249079;28;20036;-63
2022/11/08 01:51:59;;;;;;;8.00;3.17;;;;;;;10.08;100.00;100723.44;5250590;28;20071;-63
2022/11/08 01:54:58;;;;;;;9.13;3.35;;;;;;;10.06;100.00;100721.84;5248752;28;20060;-63
2022/11/08 01:57:35;;;;;;;12.00;3.22;;;;;;;10.06;100.00;100711.19;5248765;28;20187;-63
2022/11/08 02:00:09;;;;;;;9.77;2.95;;;;;;;10.02;100.00;100714.09;5252756;28;20033;-63
2022/11/08 02:02:44;;;;;;;10.13;3.03;;;;;;;10.02;100.00;100710.56;5249340;28;20085;-63
2022/11/08 02:05:23;;;;;;;14.00;2.92;;;;;;;10.06;100.00;100703.19;5246899;28;20033;-63
2022/11/08 02:08:27;;;;;;;6.07;2.60;;;;;;;10.05;100.00;100704.16;5248686;28;20032;-63
2022/11/08 02:10:59;;;;;;;7.70;3.00;;;;;;;9.99;100.00;100695.69;5238215;28;20056;-63
2022/11/08 02:13:33;;;;;;;8.57;2.75;;;;;;;9.96;100.00;100695.06;5250872;28;20112;-63
2022/11/08 02:16:12;;;;;;;11.10;2.90;;;;;;;9.97;100.00;100686.94;5247837;28;20029;-63
2022/11/08 02:18:45;;;;;;;10.98;2.97;;;;;;;9.94;100.00;100689.00;5248583;28;20032;-63
2022/11/08 02:21:52;;;;;;;7.32;2.67;;;;;;;9.95;100.00;100680.03;5247430;28;20479;-63
2022/11/08 02:24:23;;;;;;;9.25;2.80;;;;;;;9.94;100.00;100686.34;5248752;28;20490;-63
2022/11/08 02:26:56;;;;;;;9.43;2.50;;;;;;;9.94;100.00;100673.00;5241365;28;20033;-63
2022/11/08 02:29:31;;;;;;;8.27;2.60;;;;;;;9.95;100.00;100672.03;5241420;28;20081;-63
2022/11/08 02:32:04;;;;;;;11.13;2.70;;;;;;;9.91;100.00;100658.09;5240197;28;20029;-63
2022/11/08 02:34:45;;;;;;;9.02;2.80;;;;;;;9.91;100.00;100663.41;5246199;28;20091;-63
2022/11/08 02:37:19;;;;;;;8.80;2.60;;;;;;;9.93;100.00;100653.50;5244644;28;20261;-63
2022/11/08 02:39:50;;;;;;;6.03;2.30;;;;;;;9.91;100.00;100649.25;5247096;28;20029;-64
2022/11/08 02:42:22;;;;;;;8.63;2.40;;;;;;;9.98;100.00;100651.31;5248161;28;20032;-63
2022/11/08 02:44:53;;;;;;;7.55;2.17;;;;;;;9.89;100.00;100649.34;5247065;28;20422;-63
2022/11/08 02:47:24;;;;;;;7.50;2.28;;;;;;;9.87;100.00;100643.31;5248307;28;20036;-63
2022/11/08 02:49:56;;;;;;;8.38;2.35;;;;;;;9.87;100.00;100637.97;5245945;28;20494;-63
2022/11/08 02:52:27;;;;;;;7.45;2.50;;;;;;;9.84;100.00;100627.56;5248236;28;20111;-63
2022/11/08 02:54:58;;;;;;;7.13;2.20;;;;;;;9.85;100.00;100629.25;5248729;28;20037;-63
2022/11/08 02:57:31;;;;;;;12.00;3.42;;;;;;;9.85;100.00;100613.25;5248681;28;20025;-63
2022/11/08 03:00:03;;;;;;;6.07;2.20;;;;;;;9.82;100.00;100618.84;5246452;28;20107;-63
2022/11/08 03:02:34;;;;;;;8.18;2.72;;;;;;;9.82;100.00;100611.69;5248792;28;20028;-63
2022/11/08 03:05:06;;;;;;;7.93;2.10;;;;;;;9.79;100.00;100609.25;5246721;28;20397;-63
2022/11/08 03:07:37;;;;;;;8.38;2.33;;;;;;;9.79;100.00;100603.91;5247839;28;20131;-63
2022/11/08 03:10:09;;;;;;;10.43;2.17;;;;;;;9.78;100.00;100602.25;5249742;28;20024;-63
2022/11/08 03:12:44;;;;;;;8.00;2.40;;;;;;;9.79;100.00;100598.59;5247234;28;20051;-63
2022/11/08 03:15:15;;;;;;;5.68;2.22;;;;;;;9.76;100.00;100590.84;5245216;28;20116;-63
2022/11/08 03:17:47;;;;;;;5.85;2.25;;;;;;;9.75;100.00;100590.97;5248359;28;20020;-63
2022/11/08 03:20:18;;;;;;;5.00;2.22;;;;;;;9.76;100.00;100580.19;5250596;28;20044;-63
2022/11/08 03:22:57;;;;;;;8.32;2.60;;;;;;;9.72;100.00;100584.06;5250107;28;20017;-63
2022/11/08 03:25:29;;;;;;;7.82;2.22;;;;;;;9.74;100.00;100591.91;5250200;28;20733;-63
2022/11/08 03:28:01;;;;;;;5.55;2.10;;;;;;;9.75;100.00;100590.97;5245318;28;20025;-63
2022/11/08 03:30:34;;;;;;;7.25;2.40;;;;;;;9.71;100.00;100582.34;5251536;28;20021;-63
2022/11/08 03:33:05;;;;;;;7.72;2.35;;;;;;;9.69;100.00;100572.81;5246676;28;20032;-63
2022/11/08 03:35:36;;;;;;;8.63;2.78;;;;;;;9.66;100.00;100570.34;5239092;28;20043;-63
2022/11/08 03:38:08;;;;;;;8.32;2.60;;;;;;;9.67;100.00;100559.59;5244951;28;20554;-63
2022/11/08 03:40:39;;;;;;;6.20;2.33;;;;;;;9.60;100.00;100559.19;5245037;28;20035;-63
2022/11/08 03:43:11;;;;;;;8.98;2.55;;;;;;;9.61;100.00;100546.75;5239521;28;20083;-63
2022/11/08 03:45:44;;;;;;;7.72;2.28;;;;;;;9.61;100.00;100536.94;5242314;28;20124;-63
2022/11/08 03:48:15;;;;;;;7.00;2.25;;;;;;;9.61;100.00;100530.78;5244249;28;20024;-63
2022/11/08 03:50:46;;;;;;;7.68;2.30;;;;;;;9.62;100.00;100525.31;5244785;28;20024;-63
2022/11/08 03:53:17;;;;;;;7.75;2.72;;;;;;;9.55;100.00;100523.22;5244679;28;20052;-63
2022/11/08 03:55:49;;;;;;;7.97;2.25;;;;;;;9.56;100.00;100523.13;5245648;28;20124;-63
2022/11/08 03:58:20;;;;;;;6.53;2.13;;;;;;;9.54;100.00;100519.72;5243485;28;20483;-63
2022/11/08 04:00:51;;;;;;;6.45;2.28;;;;;;;9.59;100.00;100516.72;5244273;28;20483;-63
2022/11/08 04:03:23;;;;;;;5.07;2.20;;;;;;;9.54;100.00;100524.22;5245461;28;20483;-63
2022/11/08 04:05:54;;;;;;;8.10;2.53;;;;;;;9.51;100.00;100525.31;5246728;28;20041;-63
2022/11/08 04:08:27;;;;;;;9.75;2.70;;;;;;;9.49;100.00;100510.41;5245439;28;20029;-63
2022/11/08 04:15:13;;;;;;;6.55;2.55;;;;;;;9.50;100.00;100501.47;5246009;28;20024;-63
2022/11/08 04:16:40;;;;;;;11.60;3.70;;;;;;;9.46;100.00;100486.69;5244679;28;20570;-63
2022/11/08 04:22:01;;;;;;;13.90;4.07;;;;;;;9.45;100.00;100490.31;5245560;28;20171;-63
2022/11/08 04:24:33;;;;;;;14.32;4.07;;;;;;;9.43;100.00;100485.09;5247475;28;20025;-63
2022/11/08 04:27:04;;;;;;;11.70;4.43;;;;;;;9.42;100.00;100478.09;5248713;28;20457;-63
2022/11/08 04:29:35;;;;;;;12.00;3.90;;;;;;;9.43;100.00;100477.09;5244061;28;20041;-63
2022/11/08 04:32:07;;;;;;;9.50;3.13;;;;;;;9.41;100.00;100484.38;5244466;28;20103;-63
2022/11/08 04:34:38;;;;;;;11.25;3.42;;;;;;;9.41;100.00;100469.25;5245023;28;20032;-64
2022/11/08 04:37:09;;;;;;;11.57;3.47;;;;;;;9.45;100.00;100474.31;5243661;28;20025;-64
2022/11/08 04:39:40;;;;;;;9.05;2.83;;;;;;;9.42;100.00;100470.09;5246475;28;20140;-63
2022/11/08 04:42:12;;;;;;;6.97;2.60;;;;;;;9.50;100.00;100467.69;5246408;28;20146;-63
2022/11/08 04:44:43;;;;;;;7.32;3.15;;;;;;;9.43;100.00;100463.78;5241702;28;20029;-63
2022/11/08 04:47:14;;;;;;;9.10;2.95;;;;;;;9.42;100.00;100457.63;5245063;28;20175;-63
2022/11/08 04:49:45;;;;;;;11.68;2.75;;;;;;;9.41;100.00;100449.75;5245064;28;20032;-63
2022/11/08 04:52:17;;;;;;;7.88;2.45;;;;;;;9.40;100.00;100454.22;5246895;28;20066;-63
2022/11/08 04:54:48;;;;;;;6.88;2.50;;;;;;;9.40;100.00;100426.75;5247106;28;20060;-64
2022/11/08 04:57:20;;;;;;;10.60;2.67;;;;;;;9.37;100.00;100441.16;5245809;28;20079;-63
2022/11/08 04:59:51;;;;;;;7.22;2.90;;;;;;;9.37;100.00;100425.16;5245389;28;20029;-64
2022/11/08 05:02:22;;;;;;;9.07;2.75;;;;;;;9.33;100.00;100434.38;5249986;28;20031;-63
2022/11/08 05:04:54;;;;;;;8.90;2.70;;;;;;;9.36;100.00;100438.63;5250680;28;20064;-63
2022/11/08 05:07:27;;;;;;;8.93;2.58;;;;;;;9.34;100.00;100432.53;5250999;28;20037;-63
2022/11/08 05:09:58;;;;;;;6.47;2.40;;;;;;;9.30;100.00;100428.44;5250158;28;20036;-63
2022/11/08 05:12:30;;;;;;;8.32;2.55;;;;;;;9.28;100.00;100423.25;5251228;28;20043;-64
2022/11/08 05:15:02;;;;;;;8.18;2.80;;;;;;;9.25;100.00;100426.13;5232318;28;20178;-63
2022/11/08 05:17:33;;;;;;;6.85;2.08;;;;;;;9.25;100.00;100426.13;5246728;28;20048;-63
2022/11/08 05:25:54;;;;;;;5.90;2.47;;;;;;;9.19;100.00;100421.31;5249320;28;20511;-63
2022/11/08 05:28:25;;;;;;;7.88;2.60;;;;;;;9.24;100.00;100405.78;5251453;28;20040;-63
2022/11/08 05:30:57;;;;;;;6.63;2.42;;;;;;;9.19;100.00;100408.84;5250021;28;20024;-63
2022/11/08 05:33:28;;;;;;;7.28;2.10;;;;;;;9.19;100.00;100402.66;5251451;28;20040;-63
2022/11/08 05:36:01;;;;;;;6.53;2.30;;;;;;;9.17;100.00;100400.13;5248116;28;20391;-63
2022/11/08 05:38:33;;;;;;;6.57;2.13;;;;;;;9.18;100.00;100396.47;5251300;28;20383;-64
2022/11/08 05:41:10;;;;;;;7.45;2.10;;;;;;;9.13;100.00;100393.34;5245979;28;20031;-63
2022/11/08 05:43:43;;;;;;;7.95;2.50;;;;;;;9.12;100.00;100404.94;5241957;28;20079;-64
2022/11/08 05:46:17;;;;;;;9.30;2.40;;;;;;;9.14;100.00;100408.34;5238989;28;20119;-63
2022/11/08 05:48:48;;;;;;;6.18;2.30;;;;;;;9.21;100.00;100408.72;5243122;28;20761;-63
2022/11/08 05:51:20;;;;;;;7.53;2.38;;;;;;;9.10;100.00;100406.88;5244967;28;20024;-63
2022/11/08 05:53:51;;;;;;;7.88;2.20;;;;;;;9.15;100.00;100396.72;5249311;28;20724;-63
2022/11/08 05:56:23;;;;;;;8.52;2.20;;;;;;;9.09;100.00;100407.00;5249762;28;20091;-63
2022/11/08 05:58:54;;;;;;;8.30;2.63;;;;;;;9.05;100.00;100398.44;5250181;28;20029;-64
2022/11/08 06:01:25;;;;;;;9.75;2.50;;;;;;;9.05;100.00;100395.75;5246490;28;20151;-64
2022/11/08 06:03:56;;;;;;;7.43;2.38;;;;;;;9.04;100.00;100402.03;5250308;28;20029;-63
2022/11/08 06:06:28;;;;;;;8.02;3.03;;;;;;;9.03;100.00;100392.34;5248807;28;20278;-64
2022/11/08 06:08:59;;;;;;;6.35;2.33;;;;;;;9.06;100.00;100388.63;5246836;28;20028;-64
2022/11/08 06:11:30;;;;;;;9.88;2.70;;;;;;;9.00;100.00;100385.47;5249447;28;20040;-66
2022/11/08 06:14:01;;;;;;;8.73;2.30;;;;;;;9.00;100.00;100388.13;5248115;28;20028;-67
2022/11/08 06:16:33;;;;;;;8.95;3.00;;;;;;;9.00;100.00;100389.94;5250300;28;20459;-68
2022/11/08 06:19:04;;;;;;;14.80;3.95;;;;;;;9.02;100.00;100390.66;5247047;28;20073;-68
2022/11/08 06:21:35;;;;;;;7.22;2.30;;;;;;;8.96;100.00;100391.97;5249031;28;20471;-67
2022/11/08 06:24:07;;;;;;;7.05;2.50;;;;;;;8.97;100.00;100390.16;5248656;28;20382;-67
2022/11/08 06:26:38;;;;;;;8.98;2.55;;;;;;;8.95;100.00;100392.94;5248505;28;20598;-64
2022/11/08 06:29:09;;;;;;;9.73;2.97;;;;;;;8.96;100.00;100396.47;5247792;28;20108;-64
2022/11/08 06:31:41;;;;;;;9.50;2.30;;;;;;;8.98;100.00;100395.38;5247150;28;20035;-63
2022/11/08 06:34:12;;;;;;;6.93;3.17;;;;;;;8.97;100.00;100390.16;5246327;28;20032;-68
2022/11/08 06:36:43;;;;;;;6.50;2.67;;;;;;;8.99;100.00;100393.56;5247573;28;20364;-69
2022/11/08 06:39:15;;;;;;;9.32;2.75;;;;;;;8.94;100.00;100387.75;5253028;28;20138;-68
2022/11/08 06:41:46;;;;;;;9.20;2.90;;;;;;;8.91;100.00;100399.47;5248338;28;20033;-68
2022/11/08 06:44:17;;;;;;;8.35;2.55;;;;;;;9.01;100.00;100394.28;5246866;28;20071;-68
2022/11/08 06:46:48;;;;;;;8.30;2.80;;;;;;;8.92;100.00;100387.03;5251500;28;20090;-69
2022/11/08 06:49:22;;;;;;;6.97;2.40;;;;;;;8.92;100.00;100390.53;5251801;28;20163;-68
2022/11/08 06:51:53;;;;;;;5.28;2.28;;;;;;;8.98;100.00;100398.03;5252579;28;20116;-68
2022/11/08 06:54:25;;;;;;;9.10;2.70;;;;;;;8.97;100.00;100396.31;5251600;28;20067;-68
2022/11/08 06:56:59;;;;;;;7.13;2.83;;;;;;;8.92;100.00;100400.34;5249896;28;20029;-69
2022/11/08 06:59:30;;;;;;;6.28;3.22;;;;;;;8.94;100.00;100395.75;5251531;28;20033;-68
2022/11/08 07:02:01;;;;;;;6.38;2.47;;;;;;;8.92;100.00;100398.50;5247260;28;20150;-69
2022/11/08 07:04:33;;;;;;;6.72;2.63;;;;;;;8.96;100.00;100401.78;5249364;28;20036;-68
2022/11/08 07:07:04;;;;;;;5.45;2.03;;;;;;;8.92;100.00;100410.97;5249803;28;21595;-68
2022/11/08 07:09:35;;;;;;;6.22;2.30;;;;;;;8.90;100.00;100424.38;5252120;28;20025;-68
2022/11/08 07:12:06;;;;;;;7.55;2.15;;;;;;;8.93;100.00;100413.50;5252037;28;20032;-68
2022/11/08 07:14:38;;;;;;;5.63;1.95;;;;;;;8.92;100.00;100416.28;5250310;28;20103;-68
2022/11/08 07:17:09;;;;;;;4.65;1.92;;;;;;;8.94;100.00;100415.19;5250606;28;20029;-68
2022/11/08 07:19:40;;;;;;;4.80;1.90;;;;;;;8.95;100.00;100416.88;5247147;28;20056;-69
2022/11/08 07:22:11;;;;;;;6.70;2.20;;;;;;;8.96;100.00;100407.09;5248690;28;20033;-68
2022/11/08 07:24:43;;;;;;;5.57;2.20;;;;;;;8.96;100.00;100404.44;5249778;28;20126;-69
2022/11/08 07:27:14;;;;;;;6.28;2.40;;;;;;;9.02;100.00;100402.16;5254010;28;20383;-68
2022/11/08 07:29:45;;;;;;;6.95;2.10;;;;;;;9.05;100.00;100402.88;5249924;28;20517;-68
2022/11/08 07:32:17;;;;;;;7.10;2.30;;;;;;;9.05;100.00;100409.06;5247882;28;20548;-68
2022/11/08 07:34:48;;;;;;;5.90;2.28;;;;;;;9.01;100.00;100410.25;5243171;28;20406;-68
2022/11/08 07:37:19;;;;;;;6.18;2.08;;;;;;;9.04;100.00;100407.34;5240046;28;20536;-68
2022/11/08 07:39:50;;;;;;;6.85;3.83;;;;;;;9.04;100.00;100399.38;5253307;28;20064;-68
2022/11/08 07:42:22;;;;;;;7.50;3.78;;;;;;;9.05;100.00;100401.09;5255527;28;20083;-68
2022/11/08 07:44:53;;;;;;;5.80;2.90;;;;;;;9.07;100.00;100391.16;5252464;28;20040;-69
2022/11/08 07:47:24;;;;;;;5.38;2.50;;;;;;;9.14;100.00;100405.66;5253115;28;20156;-68
2022/11/08 07:49:55;;;;;;;4.07;2.30;;;;;;;9.17;100.00;100394.78;5253818;28;20364;-68
2022/11/08 07:52:27;;;;;;;5.45;1.75;;;;;;;9.19;100.00;100397.34;5252392;28;20426;-68
2022/11/08 07:54:58;;;;;;;4.93;1.67;;;;;;;9.24;100.00;100384.50;5253160;28;20094;-68
2022/11/08 07:57:29;;;;;;;4.13;1.60;;;;;;;9.28;100.00;100382.44;5253495;28;20021;-68
2022/11/08 08:00:00;;;;;;;4.65;1.50;;;;;;;9.39;100.00;100385.97;5252600;28;20031;-68
2022/11/08 08:02:32;;;;;;;5.38;1.75;;;;;;;9.39;100.00;100385.13;5252506;28;20032;-68
2022/11/08 08:05:06;;;;;;;4.43;1.30;;;;;;;9.40;100.00;100363.69;5244499;28;20456;-70
2022/11/08 08:07:37;;;;;;;5.13;1.50;;;;;;;9.61;100.00;100384.28;5244122;28;20103;-69
2022/11/08 08:10:09;;;;;;;4.53;1.90;;;;;;;9.67;100.00;100389.09;5249180;28;20022;-69
2022/11/08 08:12:40;;;;;;;4.70;1.30;;;;;;;9.74;100.00;100387.66;5244466;28;21235;-69
2022/11/08 08:15:12;;;;;;;3.72;1.45;;;;;;;9.79;100.00;100387.28;5252115;28;20028;-69
2022/11/08 08:17:43;;;;;;;5.20;1.38;;;;;;;9.92;100.00;100377.31;5251971;28;20636;-70
2022/11/08 08:20:14;;;;;;;5.97;1.58;;;;;;;9.94;100.00;100391.34;5251141;28;20494;-69
2022/11/08 08:22:47;;;;;;;2.72;1.20;;;;;;;10.15;100.00;100403.91;5241893;28;20120;-69
2022/11/08 08:25:19;;;;;;;2.97;1.13;;;;;;;10.18;100.00;100403.63;5248945;28;20078;-69
2022/11/08 08:27:53;;;;;;;5.10;1.30;;;;;;;10.25;100.00;100394.19;5247295;28;20407;-69
2022/11/08 08:30:24;;;;;;;3.35;1.55;;;;;;;10.35;100.00;100392.47;5253763;28;20035;-69
2022/11/08 08:33:01;;;;;;;4.00;1.23;;;;;;;10.38;100.00;100412.72;5248454;28;20033;-69
2022/11/08 08:35:34;;;;;;;3.67;1.25;;;;;;;10.50;100.00;100421.53;5246262;28;20401;-69
2022/11/08 08:38:06;;;;;;;4.22;1.30;;;;;;;10.51;100.00;100423.22;5245965;28;20028;-69
2022/11/08 08:40:38;;;;;;;4.15;1.27;;;;;;;10.59;100.00;100424.25;5248150;28;20021;-71
2022/11/08 08:43:10;;;;;;;4.13;1.25;;;;;;;10.60;100.00;100406.44;5250972;28;20577;-69
2022/11/08 08:45:42;;;;;;;4.65;1.40;;;;;;;10.66;100.00;100405.06;5251249;28;20032;-69
2022/11/08 08:48:13;;;;;;;5.85;1.60;;;;;;;10.72;100.00;100402.75;5249259;28;20020;-70
2022/11/08 08:50:45;;;;;;;4.78;2.72;;;;;;;10.86;100.00;100401.56;5248074;28;20043;-69
2022/11/08 08:53:16;;;;;;;2.55;1.20;;;;;;;10.90;100.00;100388.81;5239951;28;20033;-68
2022/11/08 08:55:51;;;;;;;6.72;1.50;;;;;;;10.93;100.00;100393.88;5242242;28;20052;-68
2022/11/08 08:58:22;;;;;;;4.43;1.30;;;;;;;11.03;100.00;100389.47;5249964;28;20036;-68
2022/11/08 09:00:59;;;;;;;3.83;1.20;;;;;;;11.09;100.00;100396.09;5250194;28;20517;-69
2022/11/08 09:03:32;;;;;;;4.07;1.40;;;;;;;11.16;100.00;100402.59;5251714;28;20033;-67
2022/11/08 09:06:03;;;;;;;3.95;1.75;;;;;;;11.24;100.00;100380.56;5246680;28;20030;-67
2022/11/08 09:08:35;;;;;;;4.32;1.50;;;;;;;11.25;100.00;100369.75;5251899;28;20518;-68
2022/11/08 09:11:06;;;;;;;3.70;1.33;;;;;;;11.39;100.00;100376.56;5252345;28;20025;-68
2022/11/08 09:13:38;;;;;;;5.13;1.30;;;;;;;11.33;100.00;100377.97;5248537;28;20057;-68
2022/11/08 09:16:09;;;;;;;4.07;1.38;;;;;;;11.44;100.00;100390.34;5245895;28;20419;-69
2022/11/08 09:18:40;;;;;;;2.97;1.20;;;;;;;11.45;100.00;100404.56;5252868;28;20383;-68
2022/11/08 09:21:11;;;;;;;5.03;1.38;;;;;;;11.55;100.00;100392.09;5253974;28;20036;-69
2022/11/08 09:23:43;;;;;;;4.00;1.20;;;;;;;11.63;100.00;100383.41;5248230;28;20380;-68
2022/11/08 09:26:14;;;;;;;5.78;1.77;;;;;;;11.70;100.00;100377.38;5251267;28;20033;-68
2022/11/08 09:28:45;;;;;;;3.78;1.60;;;;;;;11.73;100.00;100382.44;5253301;28;20025;-68
2022/11/08 09:31:17;;;;;;;5.28;1.70;;;;;;;11.76;100.00;100370.66;5252541;28;20029;-68
2022/11/08 09:33:49;;;;;;;3.78;1.80;;;;;;;11.77;100.00;100370.50;5243227;28;20036;-69
2022/11/08 09:36:21;;;;;;;3.55;1.70;;;;;;;11.78;100.00;100380.22;5253973;28;20048;-69
2022/11/08 09:38:52;;;;;;;6.07;2.13;;;;;;;11.86;100.00;100379.53;5251366;28;20443;-69
2022/11/08 09:41:37;;;;;;;7.18;2.47;;;;;;;11.83;100.00;100385.16;5252615;28;20040;-68
2022/11/08 09:44:25;;;;;;;;;;;;;;;11.90;100.00;100370.28;5251658;28;20040;-69
2022/11/08 09:47:03;;;;;;;4.30;2.00;;;;;;;12.05;100.00;100369.88;5254046;28;19959;-68
2022/11/08 09:49:45;;;;;;;6.82;1.85;;;;;;;12.08;100.00;100372.28;5255348;28;20456;-68
2022/11/08 09:52:26;;;;;;;5.88;1.85;;;;;;;12.13;100.00;100376.22;5250905;28;20550;-70
2022/11/08 09:55:16;;;;;;;4.72;1.70;;;;;;;12.24;100.00;100393.97;5251619;28;20106;-70
2022/11/08 09:58:17;;;;;;;5.60;1.52;;;;;;;12.33;100.00;100393.16;5252520;28;20032;-70
2022/11/08 10:00:49;;;;;;;3.83;1.30;;;;;;;12.33;100.00;100387.78;5252373;28;20104;-69
2022/11/08 10:03:23;;;;;;;6.10;1.63;;;;;;;12.33;100.00;100387.78;5252941;28;20033;-70
2022/11/08 10:06:10;;;;;;;3.97;1.48;;;;;;;12.45;100.00;100384.97;5250800;28;20021;-71
2022/11/08 10:08:54;;;;;;;3.08;1.30;;;;;;;12.60;100.00;100385.38;5256436;28;20040;-70
2022/11/08 10:11:36;;;;;;;3.97;1.17;;;;;;;12.67;100.00;100392.69;5248171;28;20033;-70
2022/11/08 10:14:26;;;;;;;3.88;1.20;;;;;;;12.70;100.00;100394.25;5247712;28;20045;-69
2022/11/08 10:17:24;;;;;;;3.15;1.30;;;;;;;12.78;100.00;100396.22;5255969;28;20052;-69
2022/11/08 10:20:07;;;;;;;4.88;1.38;;;;;;;12.74;100.00;100407.22;5252591;28;20601;-70
2022/11/08 10:22:47;;;;;;;4.00;1.13;;;;;;;12.86;100.00;100413.25;5253670;28;20083;-70
2022/11/08 10:25:35;;;;;;;4.20;1.38;;;;;;;12.89;100.00;100412.97;5249570;28;20037;-71
2022/11/08 10:28:10;;;;;;;4.07;1.40;;;;;;;12.99;100.00;100412.97;5257252;28;20028;-70
2022/11/08 10:30:46;;;;;;;5.28;1.38;;;;;;;12.98;100.00;100405.91;5246740;28;20032;-70
2022/11/08 10:33:51;;;;;;;4.85;1.40;;;;;;;13.07;100.00;100421.09;5251479;28;20035;-70
2022/11/08 10:36:45;;;;;;;3.58;1.27;;;;;;;13.13;100.00;100423.25;5245640;28;20041;-70
2022/11/08 10:39:23;;;;;;;5.30;1.38;;;;;;;13.16;99.23;100410.53;5258276;28;20133;-71
2022/11/08 10:42:36;;;;;;;3.85;1.30;;;;;;;13.17;100.00;100418.41;5252625;28;20467;-68
2022/11/08 10:45:09;;;;;;;3.83;1.40;;;;;;;13.28;100.00;100420.91;5242709;28;20041;-69
2022/11/08 10:47:44;;;;;;;6.85;1.75;;;;;;;13.34;98.34;100415.00;5256549;28;20025;-69
2022/11/08 10:50:24;;;;;;;4.78;1.48;;;;;;;13.34;99.47;100420.38;5255109;28;20036;-69
2022/11/08 10:52:59;;;;;;;3.50;1.20;;;;;;;13.39;99.45;100422.63;5239202;28;20090;-68
2022/11/08 10:55:37;;;;;;;4.40;1.40;;;;;;;13.39;99.95;100419.09;5252525;28;20080;-70
2022/11/08 10:58:41;;;;;;;4.47;1.35;;;;;;;13.44;100.00;100419.50;5253437;28;20021;-68
2022/11/08 11:01:21;;;;;;;5.55;1.40;;;;;;;13.52;99.83;100398.19;5249362;28;20439;-69
2022/11/08 11:03:52;;;;;;;4.97;1.30;;;;;;;13.55;97.78;100405.06;5246265;28;20379;-70
2022/11/08 11:06:28;;;;;;;7.15;1.48;;;;;;;13.58;98.62;100402.13;5243620;28;20036;-70
2022/11/08 11:09:03;;;;;;;4.78;1.30;;;;;;;13.59;99.50;100393.06;5251288;28;20463;-70
2022/11/08 11:11:36;;;;;;;5.15;1.30;;;;;;;13.68;94.38;100389.50;5248440;28;20180;-70
2022/11/08 11:14:20;;;;;;;3.08;1.63;;;;;;;13.69;95.12;100367.91;5250506;28;20036;-70
2022/11/08 11:17:11;;;;;;;3.20;1.17;;;;;;;13.72;96.33;100356.88;5246946;28;20027;-70
2022/11/08 11:19:50;;;;;;;4.47;1.45;;;;;;;13.71;97.38;100375.78;5248465;28;20044;-70
2022/11/08 11:22:32;;;;;;;4.55;1.30;;;;;;;13.79;96.19;100375.91;5249770;28;20028;-69
2022/11/08 11:25:12;;;;;;;3.55;1.27;;;;;;;13.74;97.90;100372.81;5250544;28;20116;-64
2022/11/08 11:27:55;;;;;;;4.50;1.20;;;;;;;13.82;98.11;100367.53;5250066;28;20108;-67
2022/11/08 11:30:32;;;;;;;4.32;1.35;;;;;;;13.85;94.04;100337.75;5246186;28;20053;-67
2022/11/08 11:33:21;;;;;;;4.15;1.38;;;;;;;13.84;97.03;100341.41;5248516;28;20126;-67
2022/11/08 11:36:11;;;;;;;3.38;1.15;;;;;;;13.91;97.82;100341.66;5251945;28;20332;-68
2022/11/08 11:38:52;;;;;;;3.53;1.20;;;;;;;13.97;94.61;100361.66;5254291;28;20107;-67
2022/11/08 11:41:30;;;;;;;4.15;1.48;;;;;;;13.96;95.18;100359.97;5247358;28;20021;-67
2022/11/08 11:44:19;;;;;;;4.88;1.23;;;;;;;14.02;95.95;100362.06;5248378;28;20052;-67
2022/11/08 11:47:00;;;;;;;4.15;1.30;;;;;;;14.03;93.45;100353.84;5239454;28;20041;-67
2022/11/08 11:49:34;;;;;;;2.92;1.10;;;;;;;14.04;93.76;100350.19;5244924;28;20832;-67
2022/11/08 11:52:14;;;;;;;5.22;1.52;;;;;;;14.07;94.52;100351.69;5245483;28;20037;-67
2022/11/08 11:54:48;;;;;;;3.80;1.40;;;;;;;14.06;95.62;100344.66;5250966;28;20109;-67
2022/11/08 11:58:03;;;;;;;4.03;1.35;;;;;;;14.13;96.57;100340.34;5252508;28;20402;-67
2022/11/08 12:00:41;;;;;;;6.00;1.83;;;;;;;14.05;97.44;100327.72;5251550;28;20138;-67
2022/11/08 12:03:39;;;;;;;3.25;1.50;;;;;;;14.02;94.50;100335.25;5249742;28;20471;-69
2022/11/08 12:06:31;;;;;;;5.35;1.50;;;;;;;14.09;93.87;100336.28;5247389;28;20414;-68
2022/11/08 12:09:27;;;;;;;4.53;1.48;;;;;;;14.06;96.29;100328.56;5249268;28;20461;-68
2022/11/08 12:12:15;;;;;;;4.22;1.50;;;;;;;14.06;95.57;100326.72;5249675;28;20048;-68
2022/11/08 12:15:02;;;;;;;6.20;1.50;;;;;;;14.08;96.15;100329.25;5254449;28;20179;-68
2022/11/08 12:18:00;;;;;;;3.25;1.42;;;;;;;14.02;96.78;100336.06;5247698;28;20017;-69